sensor_id;sensor_type;location;lat;lon;timestamp;P1;durP1;ratioP1;P2;durP2;ratioP2
53253;SDS011;39148;53.332;6.922;2022-12-18T00:02:06;54.92;;;29.02;;
53253;SDS011;39148;53.332;6.922;2022-12-18T00:04:32;55.00;;;29.38;;
53253;SDS011;39148;53.332;6.922;2022-12-18T00:06:58;55.22;;;29.27;;
53253;SDS011;39148;53.332;6.922;2022-12-18T00:09:24;56.63;;;29.13;;
53253;SDS011;39148;53.332;6.922;2022-12-18T00:11:51;53.80;;;28.35;;
53253;SDS011;39148;53.332;6.922;2022-12-18T00:14:17;55.55;;;28.55;;
53253;SDS011;39148;53.332;6.922;2022-12-18T00:16:43;51.38;;;28.25;;
53253;SDS011;39148;53.332;6.922;2022-12-18T00:19:09;55.10;;;28.35;;
53253;SDS011;39148;53.332;6.922;2022-12-18T00:21:35;53.40;;;28.77;;
53253;SDS011;39148;53.332;6.922;2022-12-18T00:24:02;51.80;;;27.70;;
53253;SDS011;39148;53.332;6.922;2022-12-18T00:26:29;55.33;;;27.52;;
53253;SDS011;39148;53.332;6.922;2022-12-18T00:28:58;49.88;;;25.92;;
53253;SDS011;39148;53.332;6.922;2022-12-18T00:31:24;55.22;;;28.67;;
53253;SDS011;39148;53.332;6.922;2022-12-18T00:33:51;56.17;;;28.13;;
53253;SDS011;39148;53.332;6.922;2022-12-18T00:36:18;53.70;;;28.02;;
53253;SDS011;39148;53.332;6.922;2022-12-18T00:38:45;52.80;;;26.83;;
53253;SDS011;39148;53.332;6.922;2022-12-18T00:41:11;53.40;;;27.85;;
53253;SDS011;39148;53.332;6.922;2022-12-18T00:43:38;49.45;;;27.08;;
53253;SDS011;39148;53.332;6.922;2022-12-18T00:46:04;51.72;;;26.83;;
53253;SDS011;39148;53.332;6.922;2022-12-18T00:48:31;51.85;;;26.98;;
53253;SDS011;39148;53.332;6.922;2022-12-18T00:50:57;53.03;;;27.77;;
53253;SDS011;39148;53.332;6.922;2022-12-18T00:53:23;52.28;;;25.77;;
53253;SDS011;39148;53.332;6.922;2022-12-18T00:55:49;52.08;;;26.88;;
53253;SDS011;39148;53.332;6.922;2022-12-18T00:58:16;49.35;;;26.05;;
53253;SDS011;39148;53.332;6.922;2022-12-18T01:00:42;51.15;;;27.67;;
53253;SDS011;39148;53.332;6.922;2022-12-18T01:03:08;48.47;;;26.15;;
53253;SDS011;39148;53.332;6.922;2022-12-18T01:05:38;49.25;;;26.23;;
53253;SDS011;39148;53.332;6.922;2022-12-18T01:08:05;46.40;;;25.23;;
53253;SDS011;39148;53.332;6.922;2022-12-18T01:10:31;46.60;;;24.48;;
53253;SDS011;39148;53.332;6.922;2022-12-18T01:12:57;45.38;;;24.17;;
53253;SDS011;39148;53.332;6.922;2022-12-18T01:15:23;47.65;;;25.98;;
53253;SDS011;39148;53.332;6.922;2022-12-18T01:17:51;46.83;;;24.50;;
53253;SDS011;39148;53.332;6.922;2022-12-18T01:20:17;45.25;;;25.33;;
53253;SDS011;39148;53.332;6.922;2022-12-18T01:22:43;47.38;;;25.75;;
53253;SDS011;39148;53.332;6.922;2022-12-18T01:25:09;48.40;;;25.48;;
53253;SDS011;39148;53.332;6.922;2022-12-18T01:27:35;48.17;;;24.85;;
53253;SDS011;39148;53.332;6.922;2022-12-18T01:30:01;44.58;;;22.77;;
53253;SDS011;39148;53.332;6.922;2022-12-18T01:32:29;43.22;;;23.58;;
53253;SDS011;39148;53.332;6.922;2022-12-18T01:34:56;45.03;;;23.90;;
53253;SDS011;39148;53.332;6.922;2022-12-18T01:37:22;48.35;;;24.73;;
53253;SDS011;39148;53.332;6.922;2022-12-18T01:39:48;44.83;;;23.73;;
53253;SDS011;39148;53.332;6.922;2022-12-18T01:42:15;41.92;;;22.95;;
53253;SDS011;39148;53.332;6.922;2022-12-18T01:47:15;46.40;;;24.00;;
53253;SDS011;39148;53.332;6.922;2022-12-18T01:49:44;42.83;;;22.73;;
53253;SDS011;39148;53.332;6.922;2022-12-18T01:52:10;39.38;;;22.25;;
53253;SDS011;39148;53.332;6.922;2022-12-18T01:54:36;44.80;;;23.80;;
53253;SDS011;39148;53.332;6.922;2022-12-18T01:57:02;45.30;;;25.02;;
53253;SDS011;39148;53.332;6.922;2022-12-18T01:59:28;47.63;;;24.60;;
53253;SDS011;39148;53.332;6.922;2022-12-18T02:01:55;42.25;;;23.80;;
53253;SDS011;39148;53.332;6.922;2022-12-18T02:04:23;43.60;;;23.23;;
53253;SDS011;39148;53.332;6.922;2022-12-18T02:06:51;45.08;;;23.60;;
53253;SDS011;39148;53.332;6.922;2022-12-18T02:09:55;45.97;;;23.45;;
53253;SDS011;39148;53.332;6.922;2022-12-18T02:12:24;45.67;;;23.88;;
53253;SDS011;39148;53.332;6.922;2022-12-18T02:14:55;45.47;;;23.35;;
53253;SDS011;39148;53.332;6.922;2022-12-18T02:17:24;45.15;;;22.95;;
53253;SDS011;39148;53.332;6.922;2022-12-18T02:27:42;43.35;;;22.67;;
53253;SDS011;39148;53.332;6.922;2022-12-18T02:30:10;49.13;;;24.23;;
53253;SDS011;39148;53.332;6.922;2022-12-18T02:32:37;45.60;;;24.00;;
53253;SDS011;39148;53.332;6.922;2022-12-18T02:35:05;42.58;;;21.58;;
53253;SDS011;39148;53.332;6.922;2022-12-18T02:37:35;46.28;;;23.10;;
53253;SDS011;39148;53.332;6.922;2022-12-18T02:40:02;45.83;;;22.48;;
53253;SDS011;39148;53.332;6.922;2022-12-18T02:42:29;49.97;;;24.52;;
53253;SDS011;39148;53.332;6.922;2022-12-18T02:44:55;43.42;;;21.90;;
53253;SDS011;39148;53.332;6.922;2022-12-18T02:47:22;48.92;;;23.35;;
53253;SDS011;39148;53.332;6.922;2022-12-18T02:52:30;46.95;;;23.27;;
53253;SDS011;39148;53.332;6.922;2022-12-18T02:55:00;44.35;;;22.70;;
53253;SDS011;39148;53.332;6.922;2022-12-18T03:00:20;47.28;;;23.83;;
53253;SDS011;39148;53.332;6.922;2022-12-18T03:05:24;49.75;;;24.27;;
53253;SDS011;39148;53.332;6.922;2022-12-18T03:07:56;48.38;;;23.70;;
53253;SDS011;39148;53.332;6.922;2022-12-18T03:10:27;44.83;;;23.00;;
53253;SDS011;39148;53.332;6.922;2022-12-18T03:12:56;48.35;;;24.00;;
53253;SDS011;39148;53.332;6.922;2022-12-18T03:15:31;42.72;;;24.73;;
53253;SDS011;39148;53.332;6.922;2022-12-18T03:18:04;46.55;;;23.73;;
53253;SDS011;39148;53.332;6.922;2022-12-18T03:20:32;48.40;;;24.90;;
53253;SDS011;39148;53.332;6.922;2022-12-18T03:23:04;48.00;;;24.02;;
53253;SDS011;39148;53.332;6.922;2022-12-18T03:25:33;48.65;;;24.00;;
53253;SDS011;39148;53.332;6.922;2022-12-18T03:28:00;51.60;;;25.40;;
53253;SDS011;39148;53.332;6.922;2022-12-18T03:30:28;50.97;;;24.55;;
53253;SDS011;39148;53.332;6.922;2022-12-18T03:33:12;51.63;;;25.58;;
53253;SDS011;39148;53.332;6.922;2022-12-18T03:35:44;51.47;;;25.25;;
53253;SDS011;39148;53.332;6.922;2022-12-18T03:38:11;51.40;;;24.45;;
53253;SDS011;39148;53.332;6.922;2022-12-18T03:43:19;51.28;;;24.42;;
53253;SDS011;39148;53.332;6.922;2022-12-18T03:45:48;52.35;;;25.88;;
53253;SDS011;39148;53.332;6.922;2022-12-18T03:48:29;48.53;;;24.40;;
53253;SDS011;39148;53.332;6.922;2022-12-18T03:55:50;49.88;;;24.85;;
53253;SDS011;39148;53.332;6.922;2022-12-18T03:58:18;54.95;;;26.63;;
53253;SDS011;39148;53.332;6.922;2022-12-18T04:00:45;48.10;;;24.75;;
53253;SDS011;39148;53.332;6.922;2022-12-18T04:03:13;48.42;;;24.58;;
53253;SDS011;39148;53.332;6.922;2022-12-18T04:05:40;51.58;;;25.88;;
53253;SDS011;39148;53.332;6.922;2022-12-18T04:08:07;51.38;;;24.60;;
53253;SDS011;39148;53.332;6.922;2022-12-18T04:10:33;52.60;;;25.42;;
53253;SDS011;39148;53.332;6.922;2022-12-18T04:12:59;52.38;;;25.35;;
53253;SDS011;39148;53.332;6.922;2022-12-18T04:15:25;47.05;;;24.13;;
53253;SDS011;39148;53.332;6.922;2022-12-18T04:17:51;45.75;;;23.98;;
53253;SDS011;39148;53.332;6.922;2022-12-18T04:20:17;49.22;;;24.13;;
53253;SDS011;39148;53.332;6.922;2022-12-18T04:22:43;49.40;;;24.45;;
53253;SDS011;39148;53.332;6.922;2022-12-18T04:25:09;50.78;;;24.75;;
53253;SDS011;39148;53.332;6.922;2022-12-18T04:27:35;53.00;;;25.77;;
53253;SDS011;39148;53.332;6.922;2022-12-18T04:30:03;51.33;;;24.40;;
53253;SDS011;39148;53.332;6.922;2022-12-18T04:32:29;47.42;;;23.52;;
53253;SDS011;39148;53.332;6.922;2022-12-18T04:34:55;49.15;;;24.67;;
53253;SDS011;39148;53.332;6.922;2022-12-18T04:37:22;54.13;;;26.00;;
53253;SDS011;39148;53.332;6.922;2022-12-18T04:39:48;47.90;;;23.50;;
53253;SDS011;39148;53.332;6.922;2022-12-18T04:42:14;49.78;;;24.67;;
53253;SDS011;39148;53.332;6.922;2022-12-18T04:44:40;49.28;;;24.27;;
53253;SDS011;39148;53.332;6.922;2022-12-18T04:47:06;49.10;;;25.20;;
53253;SDS011;39148;53.332;6.922;2022-12-18T04:49:32;50.80;;;24.30;;
53253;SDS011;39148;53.332;6.922;2022-12-18T04:51:58;48.42;;;24.00;;
53253;SDS011;39148;53.332;6.922;2022-12-18T04:54:24;50.58;;;24.98;;
53253;SDS011;39148;53.332;6.922;2022-12-18T04:56:50;46.97;;;23.42;;
53253;SDS011;39148;53.332;6.922;2022-12-18T04:59:16;49.20;;;25.13;;
53253;SDS011;39148;53.332;6.922;2022-12-18T05:01:42;46.47;;;22.40;;
53253;SDS011;39148;53.332;6.922;2022-12-18T05:04:08;49.45;;;24.33;;
53253;SDS011;39148;53.332;6.922;2022-12-18T05:06:34;48.50;;;23.65;;
53253;SDS011;39148;53.332;6.922;2022-12-18T05:09:01;43.00;;;21.90;;
53253;SDS011;39148;53.332;6.922;2022-12-18T05:11:27;43.70;;;22.98;;
53253;SDS011;39148;53.332;6.922;2022-12-18T05:13:53;45.90;;;22.75;;
53253;SDS011;39148;53.332;6.922;2022-12-18T05:16:19;44.80;;;21.52;;
53253;SDS011;39148;53.332;6.922;2022-12-18T05:18:45;42.70;;;22.45;;
53253;SDS011;39148;53.332;6.922;2022-12-18T05:21:11;40.20;;;20.60;;
53253;SDS011;39148;53.332;6.922;2022-12-18T05:23:37;44.05;;;22.50;;
53253;SDS011;39148;53.332;6.922;2022-12-18T05:26:04;38.97;;;20.20;;
53253;SDS011;39148;53.332;6.922;2022-12-18T05:28:31;44.08;;;21.42;;
53253;SDS011;39148;53.332;6.922;2022-12-18T05:30:58;41.00;;;21.10;;
53253;SDS011;39148;53.332;6.922;2022-12-18T05:33:26;39.63;;;20.92;;
53253;SDS011;39148;53.332;6.922;2022-12-18T05:35:53;37.38;;;20.17;;
53253;SDS011;39148;53.332;6.922;2022-12-18T05:38:21;38.03;;;20.63;;
53253;SDS011;39148;53.332;6.922;2022-12-18T05:40:48;37.65;;;19.60;;
53253;SDS011;39148;53.332;6.922;2022-12-18T05:43:16;37.70;;;19.92;;
53253;SDS011;39148;53.332;6.922;2022-12-18T05:45:42;37.42;;;19.20;;
53253;SDS011;39148;53.332;6.922;2022-12-18T05:48:08;37.95;;;20.20;;
53253;SDS011;39148;53.332;6.922;2022-12-18T05:50:38;36.42;;;19.33;;
53253;SDS011;39148;53.332;6.922;2022-12-18T05:53:05;35.55;;;19.73;;
53253;SDS011;39148;53.332;6.922;2022-12-18T05:55:34;37.67;;;18.75;;
53253;SDS011;39148;53.332;6.922;2022-12-18T05:58:01;34.03;;;19.63;;
53253;SDS011;39148;53.332;6.922;2022-12-18T06:00:27;33.67;;;19.05;;
53253;SDS011;39148;53.332;6.922;2022-12-18T06:02:53;33.63;;;17.92;;
53253;SDS011;39148;53.332;6.922;2022-12-18T06:05:19;33.42;;;18.33;;
53253;SDS011;39148;53.332;6.922;2022-12-18T06:07:45;31.52;;;18.55;;
53253;SDS011;39148;53.332;6.922;2022-12-18T06:10:11;33.47;;;17.65;;
53253;SDS011;39148;53.332;6.922;2022-12-18T06:12:37;32.10;;;17.48;;
53253;SDS011;39148;53.332;6.922;2022-12-18T06:15:03;33.58;;;18.38;;
53253;SDS011;39148;53.332;6.922;2022-12-18T06:17:30;30.33;;;17.38;;
53253;SDS011;39148;53.332;6.922;2022-12-18T06:19:56;31.75;;;17.02;;
53253;SDS011;39148;53.332;6.922;2022-12-18T06:22:22;34.45;;;17.48;;
53253;SDS011;39148;53.332;6.922;2022-12-18T06:24:48;33.30;;;17.90;;
53253;SDS011;39148;53.332;6.922;2022-12-18T06:27:15;31.05;;;16.77;;
53253;SDS011;39148;53.332;6.922;2022-12-18T06:29:41;32.47;;;17.73;;
53253;SDS011;39148;53.332;6.922;2022-12-18T06:32:07;32.70;;;16.45;;
53253;SDS011;39148;53.332;6.922;2022-12-18T06:34:33;29.50;;;16.67;;
53253;SDS011;39148;53.332;6.922;2022-12-18T06:36:59;32.78;;;16.75;;
53253;SDS011;39148;53.332;6.922;2022-12-18T06:39:28;31.63;;;16.60;;
53253;SDS011;39148;53.332;6.922;2022-12-18T06:41:54;30.50;;;16.35;;
53253;SDS011;39148;53.332;6.922;2022-12-18T06:44:20;27.20;;;15.18;;
53253;SDS011;39148;53.332;6.922;2022-12-18T06:46:46;33.10;;;16.27;;
53253;SDS011;39148;53.332;6.922;2022-12-18T06:49:13;29.27;;;15.90;;
53253;SDS011;39148;53.332;6.922;2022-12-18T06:51:39;30.13;;;16.30;;
53253;SDS011;39148;53.332;6.922;2022-12-18T06:54:05;31.63;;;17.30;;
53253;SDS011;39148;53.332;6.922;2022-12-18T06:56:31;34.65;;;17.73;;
53253;SDS011;39148;53.332;6.922;2022-12-18T06:58:57;31.55;;;17.25;;
53253;SDS011;39148;53.332;6.922;2022-12-18T07:01:23;30.50;;;16.52;;
53253;SDS011;39148;53.332;6.922;2022-12-18T07:03:52;29.77;;;16.42;;
53253;SDS011;39148;53.332;6.922;2022-12-18T07:06:20;27.77;;;16.27;;
53253;SDS011;39148;53.332;6.922;2022-12-18T07:08:47;30.13;;;16.63;;
53253;SDS011;39148;53.332;6.922;2022-12-18T07:11:13;27.48;;;15.80;;
53253;SDS011;39148;53.332;6.922;2022-12-18T07:13:40;27.85;;;15.50;;
53253;SDS011;39148;53.332;6.922;2022-12-18T07:16:10;27.15;;;15.60;;
53253;SDS011;39148;53.332;6.922;2022-12-18T07:18:37;21.33;;;11.87;;
53253;SDS011;39148;53.332;6.922;2022-12-18T07:21:07;27.92;;;16.13;;
53253;SDS011;39148;53.332;6.922;2022-12-18T07:23:34;28.35;;;15.93;;
53253;SDS011;39148;53.332;6.922;2022-12-18T07:26:10;28.67;;;15.68;;
53253;SDS011;39148;53.332;6.922;2022-12-18T07:28:37;28.70;;;15.45;;
53253;SDS011;39148;53.332;6.922;2022-12-18T07:31:04;24.17;;;14.23;;
53253;SDS011;39148;53.332;6.922;2022-12-18T07:33:32;25.15;;;14.75;;
53253;SDS011;39148;53.332;6.922;2022-12-18T07:35:58;27.33;;;15.18;;
53253;SDS011;39148;53.332;6.922;2022-12-18T07:38:24;24.90;;;14.57;;
53253;SDS011;39148;53.332;6.922;2022-12-18T07:40:50;27.00;;;15.10;;
53253;SDS011;39148;53.332;6.922;2022-12-18T07:43:16;26.02;;;14.13;;
53253;SDS011;39148;53.332;6.922;2022-12-18T07:45:42;25.63;;;13.73;;
53253;SDS011;39148;53.332;6.922;2022-12-18T07:48:08;26.58;;;14.65;;
53253;SDS011;39148;53.332;6.922;2022-12-18T07:50:34;24.65;;;13.80;;
53253;SDS011;39148;53.332;6.922;2022-12-18T07:53:00;24.63;;;14.10;;
53253;SDS011;39148;53.332;6.922;2022-12-18T07:55:29;25.50;;;14.40;;
53253;SDS011;39148;53.332;6.922;2022-12-18T07:57:55;23.65;;;14.30;;
53253;SDS011;39148;53.332;6.922;2022-12-18T08:00:21;24.70;;;14.30;;
53253;SDS011;39148;53.332;6.922;2022-12-18T08:02:47;25.40;;;14.57;;
53253;SDS011;39148;53.332;6.922;2022-12-18T08:05:14;24.77;;;13.88;;
53253;SDS011;39148;53.332;6.922;2022-12-18T08:07:40;25.00;;;13.30;;
53253;SDS011;39148;53.332;6.922;2022-12-18T08:10:06;22.50;;;12.90;;
53253;SDS011;39148;53.332;6.922;2022-12-18T08:12:32;22.48;;;13.43;;
53253;SDS011;39148;53.332;6.922;2022-12-18T08:14:58;23.83;;;13.70;;
53253;SDS011;39148;53.332;6.922;2022-12-18T08:17:24;21.13;;;12.85;;
53253;SDS011;39148;53.332;6.922;2022-12-18T08:19:50;23.60;;;13.20;;
53253;SDS011;39148;53.332;6.922;2022-12-18T08:22:16;23.45;;;13.30;;
53253;SDS011;39148;53.332;6.922;2022-12-18T08:24:42;21.85;;;12.70;;
53253;SDS011;39148;53.332;6.922;2022-12-18T08:27:08;23.70;;;13.07;;
53253;SDS011;39148;53.332;6.922;2022-12-18T08:29:34;22.60;;;13.13;;
53253;SDS011;39148;53.332;6.922;2022-12-18T08:32:00;22.08;;;13.20;;
53253;SDS011;39148;53.332;6.922;2022-12-18T08:34:26;24.73;;;14.10;;
53253;SDS011;39148;53.332;6.922;2022-12-18T08:36:52;22.10;;;12.82;;
53253;SDS011;39148;53.332;6.922;2022-12-18T08:39:18;22.63;;;13.32;;
53253;SDS011;39148;53.332;6.922;2022-12-18T08:41:44;22.25;;;12.70;;
53253;SDS011;39148;53.332;6.922;2022-12-18T08:44:30;23.40;;;12.82;;
53253;SDS011;39148;53.332;6.922;2022-12-18T08:47:02;20.25;;;12.05;;
53253;SDS011;39148;53.332;6.922;2022-12-18T08:49:29;23.10;;;12.98;;
53253;SDS011;39148;53.332;6.922;2022-12-18T08:51:55;22.40;;;11.98;;
53253;SDS011;39148;53.332;6.922;2022-12-18T08:54:24;21.08;;;12.02;;
53253;SDS011;39148;53.332;6.922;2022-12-18T08:56:50;20.70;;;11.77;;
53253;SDS011;39148;53.332;6.922;2022-12-18T08:59:17;21.98;;;12.57;;
53253;SDS011;39148;53.332;6.922;2022-12-18T09:01:43;21.75;;;12.43;;
53253;SDS011;39148;53.332;6.922;2022-12-18T09:04:10;22.25;;;11.82;;
53253;SDS011;39148;53.332;6.922;2022-12-18T09:06:36;21.90;;;11.57;;
53253;SDS011;39148;53.332;6.922;2022-12-18T09:09:03;20.75;;;12.00;;
53253;SDS011;39148;53.332;6.922;2022-12-18T09:11:29;20.42;;;11.27;;
53253;SDS011;39148;53.332;6.922;2022-12-18T09:13:55;21.75;;;12.18;;
53253;SDS011;39148;53.332;6.922;2022-12-18T09:16:22;20.80;;;12.18;;
53253;SDS011;39148;53.332;6.922;2022-12-18T09:18:48;19.50;;;11.20;;
53253;SDS011;39148;53.332;6.922;2022-12-18T09:21:15;19.45;;;11.80;;
53253;SDS011;39148;53.332;6.922;2022-12-18T09:23:42;19.85;;;11.15;;
53253;SDS011;39148;53.332;6.922;2022-12-18T09:26:08;20.13;;;11.85;;
53253;SDS011;39148;53.332;6.922;2022-12-18T09:28:35;21.42;;;11.38;;
53253;SDS011;39148;53.332;6.922;2022-12-18T09:31:05;19.05;;;11.63;;
53253;SDS011;39148;53.332;6.922;2022-12-18T09:33:32;20.08;;;11.38;;
53253;SDS011;39148;53.332;6.922;2022-12-18T09:36:00;18.80;;;10.55;;
53253;SDS011;39148;53.332;6.922;2022-12-18T09:38:26;20.38;;;11.10;;
53253;SDS011;39148;53.332;6.922;2022-12-18T09:40:54;17.98;;;10.70;;
53253;SDS011;39148;53.332;6.922;2022-12-18T09:43:24;19.40;;;11.43;;
53253;SDS011;39148;53.332;6.922;2022-12-18T09:45:53;21.70;;;12.05;;
53253;SDS011;39148;53.332;6.922;2022-12-18T09:48:25;19.58;;;10.98;;
53253;SDS011;39148;53.332;6.922;2022-12-18T09:50:58;20.17;;;11.40;;
53253;SDS011;39148;53.332;6.922;2022-12-18T09:53:26;19.42;;;10.90;;
53253;SDS011;39148;53.332;6.922;2022-12-18T09:55:53;18.17;;;10.25;;
53253;SDS011;39148;53.332;6.922;2022-12-18T10:00:51;16.70;;;10.07;;
53253;SDS011;39148;53.332;6.922;2022-12-18T10:03:17;16.88;;;9.88;;
53253;SDS011;39148;53.332;6.922;2022-12-18T10:08:23;17.98;;;10.05;;
53253;SDS011;39148;53.332;6.922;2022-12-18T10:10:53;16.33;;;9.27;;
53253;SDS011;39148;53.332;6.922;2022-12-18T10:18:44;15.23;;;9.02;;
53253;SDS011;39148;53.332;6.922;2022-12-18T10:21:07;14.65;;;9.48;;
53253;SDS011;39148;53.332;6.922;2022-12-18T10:26:22;16.42;;;9.43;;
53253;SDS011;39148;53.332;6.922;2022-12-18T10:28:49;15.90;;;9.10;;
53253;SDS011;39148;53.332;6.922;2022-12-18T10:31:20;16.23;;;8.68;;
53253;SDS011;39148;53.332;6.922;2022-12-18T10:33:47;14.63;;;8.40;;
53253;SDS011;39148;53.332;6.922;2022-12-18T10:36:13;13.82;;;8.55;;
53253;SDS011;39148;53.332;6.922;2022-12-18T10:38:39;13.85;;;7.85;;
53253;SDS011;39148;53.332;6.922;2022-12-18T10:41:06;14.27;;;8.57;;
53253;SDS011;39148;53.332;6.922;2022-12-18T10:43:39;14.13;;;8.48;;
53253;SDS011;39148;53.332;6.922;2022-12-18T10:51:27;13.65;;;7.68;;
53253;SDS011;39148;53.332;6.922;2022-12-18T10:53:54;12.95;;;7.78;;
53253;SDS011;39148;53.332;6.922;2022-12-18T10:56:24;11.77;;;6.78;;
53253;SDS011;39148;53.332;6.922;2022-12-18T10:59:00;13.38;;;7.47;;
53253;SDS011;39148;53.332;6.922;2022-12-18T11:01:27;13.30;;;7.18;;
53253;SDS011;39148;53.332;6.922;2022-12-18T11:06:21;12.93;;;8.02;;
53253;SDS011;39148;53.332;6.922;2022-12-18T11:11:58;11.70;;;7.10;;
53253;SDS011;39148;53.332;6.922;2022-12-18T11:14:26;11.52;;;7.50;;
53253;SDS011;39148;53.332;6.922;2022-12-18T11:16:53;11.15;;;6.68;;
53253;SDS011;39148;53.332;6.922;2022-12-18T11:21:52;10.90;;;6.57;;
53253;SDS011;39148;53.332;6.922;2022-12-18T11:24:34;11.57;;;6.68;;
53253;SDS011;39148;53.332;6.922;2022-12-18T11:27:02;11.30;;;6.38;;
53253;SDS011;39148;53.332;6.922;2022-12-18T11:29:38;10.23;;;6.30;;
53253;SDS011;39148;53.332;6.922;2022-12-18T11:34:39;11.35;;;6.18;;
53253;SDS011;39148;53.332;6.922;2022-12-18T11:37:07;11.50;;;6.20;;
53253;SDS011;39148;53.332;6.922;2022-12-18T11:42:44;10.70;;;5.82;;
53253;SDS011;39148;53.332;6.922;2022-12-18T11:44:50;9.98;;;5.63;;
53253;SDS011;39148;53.332;6.922;2022-12-18T11:49:50;11.20;;;6.03;;
53253;SDS011;39148;53.332;6.922;2022-12-18T11:52:22;10.45;;;5.93;;
53253;SDS011;39148;53.332;6.922;2022-12-18T11:54:53;12.65;;;6.13;;
53253;SDS011;39148;53.332;6.922;2022-12-18T11:57:33;9.65;;;5.78;;
53253;SDS011;39148;53.332;6.922;2022-12-18T12:00:15;10.07;;;5.85;;
53253;SDS011;39148;53.332;6.922;2022-12-18T12:05:17;11.00;;;5.63;;
53253;SDS011;39148;53.332;6.922;2022-12-18T12:26:07;9.07;;;5.20;;
53253;SDS011;39148;53.332;6.922;2022-12-18T12:38:35;10.00;;;5.10;;
53253;SDS011;39148;53.332;6.922;2022-12-18T12:41:09;9.20;;;4.88;;
53253;SDS011;39148;53.332;6.922;2022-12-18T12:43:58;8.95;;;4.90;;
53253;SDS011;39148;53.332;6.922;2022-12-18T12:46:26;10.25;;;4.50;;
53253;SDS011;39148;53.332;6.922;2022-12-18T12:48:56;8.50;;;4.95;;
53253;SDS011;39148;53.332;6.922;2022-12-18T12:53:50;10.13;;;5.75;;
53253;SDS011;39148;53.332;6.922;2022-12-18T12:56:18;7.68;;;4.50;;
53253;SDS011;39148;53.332;6.922;2022-12-18T13:01:40;9.32;;;4.80;;
53253;SDS011;39148;53.332;6.922;2022-12-18T13:10:11;9.07;;;4.80;;
53253;SDS011;39148;53.332;6.922;2022-12-18T13:12:57;9.38;;;4.55;;
53253;SDS011;39148;53.332;6.922;2022-12-18T13:20:37;9.27;;;4.82;;
53253;SDS011;39148;53.332;6.922;2022-12-18T13:23:23;7.88;;;4.60;;
53253;SDS011;39148;53.332;6.922;2022-12-18T13:30:59;9.45;;;4.53;;
53253;SDS011;39148;53.332;6.922;2022-12-18T13:35:55;7.68;;;4.45;;
53253;SDS011;39148;53.332;6.922;2022-12-18T13:38:35;7.75;;;4.47;;
53253;SDS011;39148;53.332;6.922;2022-12-18T13:43:44;8.13;;;4.18;;
53253;SDS011;39148;53.332;6.922;2022-12-18T13:46:30;8.32;;;4.53;;
53253;SDS011;39148;53.332;6.922;2022-12-18T13:51:35;10.48;;;5.43;;
53253;SDS011;39148;53.332;6.922;2022-12-18T13:56:49;9.63;;;4.65;;
53253;SDS011;39148;53.332;6.922;2022-12-18T13:59:23;8.57;;;4.20;;
53253;SDS011;39148;53.332;6.922;2022-12-18T14:04:25;7.82;;;4.40;;
53253;SDS011;39148;53.332;6.922;2022-12-18T14:09:19;9.57;;;4.38;;
53253;SDS011;39148;53.332;6.922;2022-12-18T14:11:48;7.95;;;4.28;;
53253;SDS011;39148;53.332;6.922;2022-12-18T14:14:15;9.43;;;4.65;;
53253;SDS011;39148;53.332;6.922;2022-12-18T14:16:42;7.70;;;4.60;;
53253;SDS011;39148;53.332;6.922;2022-12-18T14:19:11;7.97;;;4.28;;
53253;SDS011;39148;53.332;6.922;2022-12-18T14:21:38;8.38;;;4.50;;
53253;SDS011;39148;53.332;6.922;2022-12-18T14:24:20;7.50;;;4.50;;
53253;SDS011;39148;53.332;6.922;2022-12-18T14:26:47;7.78;;;4.15;;
53253;SDS011;39148;53.332;6.922;2022-12-18T14:29:18;8.63;;;4.75;;
53253;SDS011;39148;53.332;6.922;2022-12-18T14:32:09;6.63;;;3.95;;
53253;SDS011;39148;53.332;6.922;2022-12-18T14:34:36;7.45;;;4.57;;
53253;SDS011;39148;53.332;6.922;2022-12-18T14:37:02;8.35;;;4.72;;
53253;SDS011;39148;53.332;6.922;2022-12-18T14:39:29;6.82;;;3.85;;
53253;SDS011;39148;53.332;6.922;2022-12-18T14:41:55;7.43;;;4.00;;
53253;SDS011;39148;53.332;6.922;2022-12-18T14:44:21;8.02;;;4.38;;
53253;SDS011;39148;53.332;6.922;2022-12-18T14:46:48;8.77;;;4.60;;
53253;SDS011;39148;53.332;6.922;2022-12-18T14:49:19;8.60;;;5.05;;
53253;SDS011;39148;53.332;6.922;2022-12-18T14:51:48;7.47;;;4.53;;
53253;SDS011;39148;53.332;6.922;2022-12-18T14:54:16;8.18;;;4.30;;
53253;SDS011;39148;53.332;6.922;2022-12-18T14:56:44;8.05;;;4.20;;
53253;SDS011;39148;53.332;6.922;2022-12-18T14:59:21;7.53;;;4.40;;
53253;SDS011;39148;53.332;6.922;2022-12-18T15:07:02;8.88;;;4.25;;
53253;SDS011;39148;53.332;6.922;2022-12-18T15:09:28;8.07;;;4.85;;
53253;SDS011;39148;53.332;6.922;2022-12-18T15:11:55;7.82;;;4.05;;
53253;SDS011;39148;53.332;6.922;2022-12-18T15:17:05;9.65;;;5.05;;
53253;SDS011;39148;53.332;6.922;2022-12-18T15:19:34;8.43;;;4.80;;
53253;SDS011;39148;53.332;6.922;2022-12-18T15:22:00;10.85;;;4.32;;
53253;SDS011;39148;53.332;6.922;2022-12-18T15:24:29;10.43;;;5.47;;
53253;SDS011;39148;53.332;6.922;2022-12-18T15:26:55;8.50;;;4.68;;
53253;SDS011;39148;53.332;6.922;2022-12-18T15:29:22;8.45;;;4.82;;
53253;SDS011;39148;53.332;6.922;2022-12-18T15:32:01;7.85;;;4.40;;
53253;SDS011;39148;53.332;6.922;2022-12-18T15:34:40;8.02;;;4.63;;
53253;SDS011;39148;53.332;6.922;2022-12-18T15:37:07;7.88;;;4.45;;
53253;SDS011;39148;53.332;6.922;2022-12-18T15:39:33;8.48;;;4.75;;
53253;SDS011;39148;53.332;6.922;2022-12-18T15:42:01;7.90;;;4.50;;
53253;SDS011;39148;53.332;6.922;2022-12-18T15:44:46;7.22;;;4.30;;
53253;SDS011;39148;53.332;6.922;2022-12-18T15:47:12;8.77;;;4.68;;
53253;SDS011;39148;53.332;6.922;2022-12-18T15:49:38;8.15;;;4.60;;
53253;SDS011;39148;53.332;6.922;2022-12-18T15:52:05;8.23;;;4.15;;
53253;SDS011;39148;53.332;6.922;2022-12-18T15:54:31;8.05;;;4.45;;
53253;SDS011;39148;53.332;6.922;2022-12-18T15:57:15;8.40;;;4.68;;
53253;SDS011;39148;53.332;6.922;2022-12-18T15:59:48;7.85;;;4.30;;
53253;SDS011;39148;53.332;6.922;2022-12-18T16:02:15;8.45;;;4.45;;
53253;SDS011;39148;53.332;6.922;2022-12-18T16:04:42;8.95;;;4.65;;
53253;SDS011;39148;53.332;6.922;2022-12-18T16:07:08;7.65;;;4.32;;
53253;SDS011;39148;53.332;6.922;2022-12-18T16:09:35;8.77;;;4.28;;
53253;SDS011;39148;53.332;6.922;2022-12-18T16:12:01;8.10;;;4.47;;
53253;SDS011;39148;53.332;6.922;2022-12-18T16:14:28;8.27;;;4.80;;
53253;SDS011;39148;53.332;6.922;2022-12-18T16:16:55;9.05;;;4.93;;
53253;SDS011;39148;53.332;6.922;2022-12-18T16:19:22;8.13;;;4.63;;
53253;SDS011;39148;53.332;6.922;2022-12-18T16:21:49;7.60;;;4.25;;
53253;SDS011;39148;53.332;6.922;2022-12-18T16:24:16;7.93;;;4.47;;
53253;SDS011;39148;53.332;6.922;2022-12-18T16:26:43;7.43;;;4.20;;
53253;SDS011;39148;53.332;6.922;2022-12-18T16:29:09;7.45;;;4.15;;
53253;SDS011;39148;53.332;6.922;2022-12-18T16:31:35;9.25;;;4.20;;
53253;SDS011;39148;53.332;6.922;2022-12-18T16:36:36;6.90;;;4.00;;
53253;SDS011;39148;53.332;6.922;2022-12-18T16:39:02;9.13;;;4.50;;
53253;SDS011;39148;53.332;6.922;2022-12-18T16:41:28;6.82;;;4.07;;
53253;SDS011;39148;53.332;6.922;2022-12-18T16:43:58;7.70;;;4.60;;
53253;SDS011;39148;53.332;6.922;2022-12-18T16:46:24;6.90;;;3.97;;
53253;SDS011;39148;53.332;6.922;2022-12-18T16:48:50;6.93;;;4.05;;
53253;SDS011;39148;53.332;6.922;2022-12-18T16:51:16;8.68;;;4.57;;
53253;SDS011;39148;53.332;6.922;2022-12-18T16:53:42;8.25;;;4.00;;